Wijchen, Netherlands
Current Conditions -  °F | °C
As of 7:55 PM on Thursday 30 Oct 2014 (Local Time) from EHVK Reporting Station
Haze Haze  
Wind Chill: 14°   Ceiling: 13000
Heat Index: 14°   Visibility: 4mi
Dew Point: 13°   Wind: 6mph
Humidity: 94%   Direction: 170°S
Pressure: 30.18"   Gusts: NA
Location:  51.81°N, 5.73°E
Report Text: EHVK 301855Z AUTO 17005KT 6000 BR OVC130 14/13 Q1022 WHT
Loading
Personal Weather Stations






























Interactive Weather Map
Tropical Storm Tracking
New forecast layout! Learn more

10-Day Weather Forecast

Advertisements
Track Severe Weather on mobile